Time;durP1;ratioP1;P1;durP2;ratioP2;P2;SDS_P1;SDS_P2;PMS_P1;PMS_P2;Temp;Humidity;BMP_temperature;BMP_pressure;BME280_temperature;BME280_humidity;BME280_pressure;Samples;Min_cycle;Max_cycle;Signal;HPM_P1;HPM_P2
2021/06/02 00:00:08;;;;;;;;;;;;;;;12.17;59.43;95830.69;1043192;28;20037;-48
2021/06/02 00:00:38;;;;;;;;;;;;;;;12.16;59.62;95826.41;1039172;28;20021;-48
2021/06/02 00:01:09;;;;;;;;;;;;;;;12.16;60.03;95831.69;1041675;28;19928;-48
2021/06/02 00:01:40;;;;;;;;;;;;;;;12.12;59.94;95825.25;1040424;28;19913;-47
2021/06/02 00:02:10;;;;;;;;;;;;;;;12.11;60.24;95827.06;1033828;28;19906;-46
2021/06/02 00:02:48;;;;;;;;;;;;;;;12.07;60.28;95824.03;1040325;28;20517;-46
2021/06/02 00:03:18;;;;;;;;;;;;;;;12.05;61.00;95825.25;1039961;28;19921;-47
2021/06/02 00:03:48;;;;;;;;;;;;;;;11.99;61.20;95829.53;1037666;28;20288;-49
2021/06/02 00:04:19;;;;;;;;;;;;;;;11.96;60.92;95816.78;1037575;28;20393;-47
2021/06/02 00:04:53;;;;;;;;;;;;;;;11.94;62.18;95831.22;1037884;28;20393;-48
2021/06/02 00:05:23;;;;;;;;;;;;;;;11.93;62.30;95821.69;1038363;28;19976;-47
2021/06/02 00:05:54;;;;;;;;;;;;;;;11.90;62.13;95823.69;1044774;28;20015;-47
2021/06/02 00:06:25;;;;;;;;;;;;;;;11.88;62.08;95817.00;1041699;28;20003;-47
2021/06/02 00:06:59;;;;;;;;;;;;;;;11.84;62.15;95826.34;1042390;28;19905;-48
2021/06/02 00:07:29;;;;;;;;;;;;;;;11.82;62.36;95828.41;1043230;28;19905;-47
2021/06/02 00:07:59;;;;;;;;;;;;;;;11.83;62.86;95825.56;1043262;28;19905;-47
2021/06/02 00:08:30;;;;;;;;;;;;;;;11.81;63.07;95824.13;1041966;28;20349;-48
2021/06/02 00:09:00;;;;;;;;;;;;;;;11.78;63.10;95824.56;1041793;28;19912;-49
2021/06/02 00:09:31;;;;;;;;;;;;;;;11.75;63.62;95815.22;1042924;28;19905;-47
2021/06/02 00:10:01;;;;;;;;;;;;;;;11.70;63.83;95826.41;1039437;28;19955;-49
2021/06/02 00:10:31;;;;;;;;;;;;;;;11.69;63.99;95829.25;1034443;28;19905;-51
2021/06/02 00:11:01;;;;;;;;;;;;;;;11.66;64.07;95827.03;1034897;28;19909;-49
2021/06/02 00:11:34;;;;;;;;;;;;;;;11.65;63.85;95828.88;1029978;28;19917;-50
2021/06/02 00:12:06;;;;;;;;;;;;;;;11.66;64.63;95827.03;1036593;28;19909;-48
2021/06/02 00:12:36;;;;;;;;;;;;;;;11.59;64.79;95821.78;1042765;28;19916;-48
2021/06/02 00:13:07;;;;;;;;;;;;;;;11.56;64.35;95824.84;1043504;28;20416;-47
2021/06/02 00:13:37;;;;;;;;;;;;;;;11.54;64.98;95818.97;1042799;28;19909;-48
2021/06/02 00:14:07;;;;;;;;;;;;;;;11.54;64.98;95822.41;1044660;28;19978;-48
2021/06/02 00:14:38;;;;;;;;;;;;;;;11.48;65.06;95822.47;1044677;28;19916;-47
2021/06/02 00:15:08;;;;;;;;;;;;;;;11.42;65.16;95823.25;1044855;28;19957;-48
2021/06/02 00:15:39;;;;;;;;;;;;;;;11.43;64.94;95824.88;1044633;28;19915;-46
2021/06/02 00:16:09;;;;;;;;;;;;;;;11.46;65.13;95816.56;1040736;28;19915;-48
2021/06/02 00:16:39;;;;;;;;;;;;;;;11.40;65.56;95817.38;1040398;28;19920;-48
2021/06/02 00:17:10;;;;;;;;;;;;;;;11.40;65.13;95820.03;1036459;28;20305;-47
2021/06/02 00:17:40;;;;;;;;;;;;;;;11.40;65.82;95815.56;1036595;28;20279;-49
2021/06/02 00:18:10;;;;;;;;;;;;;;;11.34;65.79;95816.38;1036954;28;20436;-47
2021/06/02 00:18:41;;;;;;;;;;;;;;;11.26;66.30;95812.16;1040716;28;19948;-47
2021/06/02 00:19:11;;;;;;;;;;;;;;;11.25;67.07;95817.63;1044959;28;19909;-46
2021/06/02 00:19:41;;;;;;;;;;;;;;;11.21;66.96;95819.88;1040914;28;19916;-45
2021/06/02 00:20:12;;;;;;;;;;;;;;;11.20;66.51;95816.44;1036602;28;20373;-46
2021/06/02 00:20:42;;;;;;;;;;;;;;;11.17;66.61;95814.22;1036715;28;19916;-46
2021/06/02 00:21:13;;;;;;;;;;;;;;;11.16;66.87;95823.13;1036696;28;19917;-46
2021/06/02 00:21:43;;;;;;;;;;;;;;;11.13;67.56;95817.44;1036660;28;19909;-47
2021/06/02 00:22:13;;;;;;;;;;;;;;;11.16;67.27;95819.69;1040769;28;19913;-47
2021/06/02 00:22:44;;;;;;;;;;;;;;;11.19;66.76;95817.44;1044857;28;19908;-47
2021/06/02 00:23:14;;;;;;;;;;;;;;;11.20;66.91;95812.97;1044630;28;19905;-47
2021/06/02 00:23:44;;;;;;;;;;;;;;;11.13;67.33;95817.44;1044621;28;19908;-48
2021/06/02 00:24:15;;;;;;;;;;;;;;;11.10;67.35;95810.78;1044550;28;19916;-47
2021/06/02 00:24:45;;;;;;;;;;;;;;;11.11;67.46;95814.22;1044781;28;19909;-47
2021/06/02 00:25:15;;;;;;;;;;;;;;;11.13;67.43;95817.44;1044922;28;19900;-50
2021/06/02 00:25:46;;;;;;;;;;;;;;;11.10;67.80;95815.22;1045084;28;19909;-48
2021/06/02 00:26:16;;;;;;;;;;;;;;;11.09;67.45;95813.63;1045102;28;19909;-49
2021/06/02 00:26:47;;;;;;;;;;;;;;;11.12;67.80;95814.00;1044921;28;20349;-47
2021/06/02 00:27:17;;;;;;;;;;;;;;;11.11;67.73;95811.59;1044786;28;19908;-46
2021/06/02 00:27:47;;;;;;;;;;;;;;;11.08;67.59;95814.63;1044831;28;19916;-46
2021/06/02 00:28:18;;;;;;;;;;;;;;;11.03;67.50;95812.63;1044702;28;19909;-46
2021/06/02 00:28:48;;;;;;;;;;;;;;;10.93;68.21;95818.31;1044601;28;19967;-46
2021/06/02 00:29:19;;;;;;;;;;;;;;;10.92;68.47;95807.97;1044731;28;20003;-46
2021/06/02 00:29:49;;;;;;;;;;;;;;;10.94;68.61;95811.22;1044884;28;19908;-46
2021/06/02 00:30:19;;;;;;;;;;;;;;;10.95;68.68;95805.75;1044950;28;19916;-47
2021/06/02 00:30:50;;;;;;;;;;;;;;;10.95;68.65;95820.75;1044872;28;19959;-46
2021/06/02 00:31:20;;;;;;;;;;;;;;;10.95;68.53;95810.22;1044673;28;19916;-46
2021/06/02 00:31:50;;;;;;;;;;;;;;;10.93;68.49;95812.22;1045075;28;19909;-48
2021/06/02 00:32:21;;;;;;;;;;;;;;;10.92;68.32;95816.69;1044913;28;19951;-46
2021/06/02 00:32:51;;;;;;;;;;;;;;;10.88;68.54;95814.66;1044906;28;19908;-46
2021/06/02 00:33:22;;;;;;;;;;;;;;;10.89;68.64;95806.56;1040785;28;19952;-46
2021/06/02 00:33:52;;;;;;;;;;;;;;;10.88;68.70;95809.41;1040738;28;20294;-46
2021/06/02 00:34:23;;;;;;;;;;;;;;;10.84;69.13;95814.25;1036178;28;19948;-46
2021/06/02 00:34:53;;;;;;;;;;;;;;;10.78;69.12;95809.78;1036575;28;19913;-46
2021/06/02 00:35:23;;;;;;;;;;;;;;;10.75;69.28;95812.84;1040989;28;19913;-46
2021/06/02 00:35:54;;;;;;;;;;;;;;;10.70;69.28;95812.66;1040546;28;20371;-46
2021/06/02 00:36:25;;;;;;;;;;;;;;;10.63;69.69;95805.56;1044416;28;19908;-46
2021/06/02 00:36:55;;;;;;;;;;;;;;;10.61;69.49;95807.59;1044634;28;19909;-46
2021/06/02 00:37:26;;;;;;;;;;;;;;;10.63;70.64;95808.19;1044453;28;19908;-46
2021/06/02 00:37:56;;;;;;;;;;;;;;;10.62;69.80;95801.31;1040485;28;19902;-46
2021/06/02 00:38:26;;;;;;;;;;;;;;;10.64;69.92;95806.38;1036790;28;20356;-45
2021/06/02 00:38:57;;;;;;;;;;;;;;;10.66;70.28;95809.63;1036510;28;19916;-45
2021/06/02 00:39:27;;;;;;;;;;;;;;;10.60;69.78;95807.81;1036494;28;20401;-46
2021/06/02 00:39:57;;;;;;;;;;;;;;;10.58;70.64;95804.53;1044601;28;19900;-46
2021/06/02 00:40:34;;;;;;;;;;;;;;;10.61;70.70;95807.59;1044973;28;19999;-46
2021/06/02 00:41:04;;;;;;;;;;;;;;;10.62;69.98;95803.13;1040450;28;20308;-46
2021/06/02 00:41:35;;;;;;;;;;;;;;;10.59;70.28;95803.53;1036422;28;19916;-46
2021/06/02 00:42:05;;;;;;;;;;;;;;;10.59;70.27;95800.91;1028281;28;19917;-46
2021/06/02 00:42:36;;;;;;;;;;;;;;;10.57;70.62;95803.75;1024661;28;20299;-46
2021/06/02 00:43:06;;;;;;;;;;;;;;;10.55;71.18;95805.78;1032478;28;19910;-45
2021/06/02 00:43:36;;;;;;;;;;;;;;;10.56;71.36;95802.13;1032460;28;19910;-46
2021/06/02 00:44:07;;;;;;;;;;;;;;;10.57;70.97;95801.13;1036573;28;20293;-46
2021/06/02 00:44:37;;;;;;;;;;;;;;;10.59;71.41;95804.34;1040404;28;20119;-46
2021/06/02 00:45:08;;;;;;;;;;;;;;;10.62;71.40;95800.50;1036549;28;20074;-46
2021/06/02 00:45:38;;;;;;;;;;;;;;;10.63;71.61;95797.66;1036940;28;19909;-46
2021/06/02 00:46:09;;;;;;;;;;;;;;;10.62;72.09;95801.31;1032223;28;19913;-46
2021/06/02 00:46:39;;;;;;;;;;;;;;;10.61;71.66;95801.50;1032461;28;19981;-48
2021/06/02 00:47:10;;;;;;;;;;;;;;;10.60;72.10;95802.53;1036712;28;19909;-46
2021/06/02 00:47:40;;;;;;;;;;;;;;;10.60;71.79;95805.16;1040806;28;19916;-47
2021/06/02 00:48:15;;;;;;;;;;;;;;;10.61;71.36;95804.13;1044907;28;19977;-46
2021/06/02 00:48:45;;;;;;;;;;;;;;;10.63;71.30;95805.56;1044683;28;20008;-47
2021/06/02 00:49:22;;;;;;;;;;;;;;;10.62;71.37;95806.56;1044646;28;19916;-50
2021/06/02 00:49:52;;;;;;;;;;;;;;;10.66;72.61;95805.16;1044953;28;19909;-47
2021/06/02 00:50:23;;;;;;;;;;;;;;;10.66;71.74;95799.88;1044567;28;19909;-47
2021/06/02 00:50:53;;;;;;;;;;;;;;;10.67;71.38;95805.97;1044837;28;19909;-46
2021/06/02 00:51:23;;;;;;;;;;;;;;;10.71;72.33;95799.28;1044427;28;19951;-48
2021/06/02 00:51:57;;;;;;;;;;;;;;;10.71;71.71;95801.91;1044840;28;19901;-47
2021/06/02 00:52:27;;;;;;;;;;;;;;;10.72;70.82;95800.06;1045000;28;19909;-47
2021/06/02 00:52:57;;;;;;;;;;;;;;;10.72;71.66;95811.44;1044686;28;19909;-47
2021/06/02 00:53:28;;;;;;;;;;;;;;;10.72;70.60;95800.91;1044577;28;19952;-47
2021/06/02 00:53:58;;;;;;;;;;;;;;;10.72;70.27;95806.19;1040364;28;19909;-46
2021/06/02 00:54:32;;;;;;;;;;;;;;;10.74;69.72;95801.50;1040374;28;20309;-47
2021/06/02 00:55:02;;;;;;;;;;;;;;;10.75;69.74;95804.94;1040593;28;19913;-46
2021/06/02 00:55:32;;;;;;;;;;;;;;;10.75;70.40;95808.41;1041779;28;19914;-46
2021/06/02 00:56:03;;;;;;;;;;;;;;;10.73;69.55;95807.78;1045648;28;19987;-46
2021/06/02 00:56:38;;;;;;;;;;;;;;;10.70;69.41;95802.13;1045656;28;20003;-47
2021/06/02 00:57:11;;;;;;;;;;;;;;;10.69;70.57;95803.13;1045678;28;19999;-46
2021/06/02 00:57:44;;;;;;;;;;;;;;;10.65;70.12;95806.16;1045722;28;19909;-46
2021/06/02 00:58:24;;;;;;;;;;;;;;;10.62;70.58;95793.41;1045540;28;19915;-47
2021/06/02 00:58:55;;;;;;;;;;;;;;;10.60;70.68;95800.69;1045442;28;19944;-46
2021/06/02 00:59:32;;;;;;;;;;;;;;;10.62;70.97;95808.41;1045582;28;19915;-46
2021/06/02 01:00:08;;;;;;;;;;;;;;;10.61;71.18;95797.06;1045382;28;20095;-46
2021/06/02 01:00:38;;;;;;;;;;;;;;;10.62;71.52;95796.03;1045566;28;19940;-45
2021/06/02 01:01:09;;;;;;;;;;;;;;;10.63;71.83;95799.50;1045252;28;19915;-46
2021/06/02 01:01:39;;;;;;;;;;;;;;;10.60;71.25;95798.06;1041252;28;19909;-47
2021/06/02 01:02:10;;;;;;;;;;;;;;;10.61;71.65;95801.50;1041149;28;19916;-46
2021/06/02 01:02:40;;;;;;;;;;;;;;;10.62;71.03;95801.31;1041403;28;19928;-46
2021/06/02 01:03:11;;;;;;;;;;;;;;;10.61;71.42;95797.06;1041339;28;19916;-47
2021/06/02 01:03:41;;;;;;;;;;;;;;;10.62;72.09;95795.25;1045427;28;19908;-46
2021/06/02 01:04:12;;;;;;;;;;;;;;;10.62;71.14;95796.03;1045110;28;19973;-47
2021/06/02 01:04:42;;;;;;;;;;;;;;;10.63;71.82;95796.88;1041189;28;19909;-46
2021/06/02 01:05:12;;;;;;;;;;;;;;;10.61;71.63;95790.97;1041216;28;20254;-47
2021/06/02 01:05:43;;;;;;;;;;;;;;;10.63;72.13;95791.59;1037212;28;20008;-47
2021/06/02 01:06:13;;;;;;;;;;;;;;;10.63;71.87;95792.41;1037177;28;20332;-47
2021/06/02 01:06:46;;;;;;;;;;;;;;;10.63;71.47;95786.34;1041205;28;19909;-47
2021/06/02 01:07:16;;;;;;;;;;;;;;;10.63;72.21;95789.75;1041544;28;20411;-46
2021/06/02 01:07:48;;;;;;;;;;;;;;;10.62;72.50;95788.13;1045300;28;19908;-48
2021/06/02 01:08:19;;;;;;;;;;;;;;;10.63;71.72;95792.41;1041148;28;20417;-47
2021/06/02 01:08:49;;;;;;;;;;;;;;;10.64;71.54;95793.19;1041554;28;19955;-47
2021/06/02 01:09:20;;;;;;;;;;;;;;;10.63;71.69;95781.88;1041120;28;20014;-47
2021/06/02 01:09:52;;;;;;;;;;;;;;;10.62;72.49;95790.78;1041729;28;19909;-49
2021/06/02 01:10:22;;;;;;;;;;;;;;;10.59;72.72;95790.38;1037194;28;20036;-47
2021/06/02 01:10:52;;;;;;;;;;;;;;;10.57;71.58;95789.78;1033260;28;19964;-47
2021/06/02 01:11:23;;;;;;;;;;;;;;;10.57;71.75;95787.94;1037145;28;19905;-51
2021/06/02 01:11:53;;;;;;;;;;;;;;;10.56;71.30;95788.94;1033092;28;19944;-51
2021/06/02 01:12:24;;;;;;;;;;;;;;;10.54;71.17;95788.34;1037186;28;19979;-47
2021/06/02 01:12:55;;;;;;;;;;;;;;;10.54;71.67;95792.81;1041303;28;20308;-47
2021/06/02 01:13:26;;;;;;;;;;;;;;;10.51;71.67;95794.03;1045293;28;19983;-48
2021/06/02 01:13:57;;;;;;;;;;;;;;;10.53;71.28;95797.25;1045813;28;19947;-47
2021/06/02 01:14:28;;;;;;;;;;;;;;;10.53;71.16;95796.44;1045468;28;20357;-47
2021/06/02 01:14:58;;;;;;;;;;;;;;;10.52;71.35;95789.56;1045310;28;19901;-49
2021/06/02 01:15:28;;;;;;;;;;;;;;;10.47;71.76;95793.59;1045383;28;19901;-46
2021/06/02 01:15:58;;;;;;;;;;;;;;;10.43;72.08;95791.56;1045309;28;19934;-48
2021/06/02 01:16:29;;;;;;;;;;;;;;;10.40;72.37;95792.81;1045147;28;19901;-48
2021/06/02 01:17:00;;;;;;;;;;;;;;;10.38;72.34;95794.00;1045385;28;19901;-47
2021/06/02 01:17:31;;;;;;;;;;;;;;;10.39;72.42;95795.66;1041322;28;19908;-48
2021/06/02 01:18:01;;;;;;;;;;;;;;;10.38;72.33;95800.06;1041326;28;20020;-48
2021/06/02 01:18:32;;;;;;;;;;;;;;;10.35;72.87;95795.22;1041490;28;19907;-47
2021/06/02 01:19:03;;;;;;;;;;;;;;;10.36;72.23;95794.22;1037475;28;19902;-48
2021/06/02 01:19:33;;;;;;;;;;;;;;;10.25;72.50;95792.97;1041231;28;20357;-48
2021/06/02 01:20:04;;;;;;;;;;;;;;;10.23;73.40;95796.81;1041246;28;19907;-47
2021/06/02 01:20:36;;;;;;;;;;;;;;;10.23;73.25;95796.81;1037164;28;19902;-47
2021/06/02 01:21:10;;;;;;;;;;;;;;;10.19;73.12;95801.66;1045378;28;19901;-46
2021/06/02 01:21:53;;;;;;;;;;;;;;;10.17;72.57;95795.78;1045287;28;19983;-47
2021/06/02 01:22:23;;;;;;;;;;;;;;;10.17;72.85;95794.97;1043585;28;20409;-46
2021/06/02 01:22:53;;;;;;;;;;;;;;;10.17;73.30;95798.41;1045328;28;19901;-47
2021/06/02 01:23:24;;;;;;;;;;;;;;;10.14;73.30;95794.38;1041158;28;19901;-46
2021/06/02 01:23:59;;;;;;;;;;;;;;;10.14;73.49;95797.00;1037130;28;19901;-47
2021/06/02 01:24:30;;;;;;;;;;;;;;;10.15;73.31;95795.16;1041075;28;19964;-47
2021/06/02 01:25:08;;;;;;;;;;;;;;;10.17;72.80;95795.78;1042106;28;19932;-46
2021/06/02 01:25:39;;;;;;;;;;;;;;;10.11;73.24;95805.28;1042984;28;19909;-46
2021/06/02 01:26:09;;;;;;;;;;;;;;;10.10;74.04;95802.88;1045131;28;20274;-48
2021/06/02 01:26:39;;;;;;;;;;;;;;;10.07;74.41;95798.81;1041111;28;19909;-47
2021/06/02 01:27:10;;;;;;;;;;;;;;;10.07;73.97;95803.25;1037095;28;19909;-47
2021/06/02 01:27:40;;;;;;;;;;;;;;;10.02;74.45;95798.59;1041309;28;19909;-47
2021/06/02 01:28:11;;;;;;;;;;;;;;;10.01;73.76;95804.88;1041374;28;19909;-47
2021/06/02 01:28:41;;;;;;;;;;;;;;;10.00;74.09;95797.16;1041323;28;20392;-47
2021/06/02 01:29:11;;;;;;;;;;;;;;;9.99;74.39;95804.25;1045281;28;19916;-47
2021/06/02 01:29:43;;;;;;;;;;;;;;;9.89;75.04;95807.25;1045346;28;19955;-47
2021/06/02 01:30:14;;;;;;;;;;;;;;;9.88;74.92;95807.47;1045190;28;19909;-47
2021/06/02 01:30:44;;;;;;;;;;;;;;;9.88;74.37;95803.00;1045302;28;20359;-47
2021/06/02 01:31:16;;;;;;;;;;;;;;;9.85;74.93;95805.22;1045613;28;19999;-47
2021/06/02 01:31:46;;;;;;;;;;;;;;;9.88;75.12;95803.00;1045530;28;19912;-49
2021/06/02 01:32:19;;;;;;;;;;;;;;;9.90;75.21;95801.00;1045283;28;19909;-47
2021/06/02 01:33:11;;;;;;;;;;;;;;;9.86;75.98;95802.41;1045307;28;19908;-48
2021/06/02 01:33:49;;;;;;;;;;;;;;;9.93;75.50;95802.44;1045548;28;19954;-47
2021/06/02 01:34:25;;;;;;;;;;;;;;;9.89;75.14;95801.19;1040832;28;19909;-49
2021/06/02 01:35:14;;;;;;;;;;;;;;;9.91;74.68;95802.59;1041065;28;20328;-47
2021/06/02 01:35:44;;;;;;;;;;;;;;;9.89;74.12;95799.38;1041097;28;19909;-48
2021/06/02 01:36:14;;;;;;;;;;;;;;;9.87;74.21;95800.56;1044769;28;19958;-47
2021/06/02 01:37:03;;;;;;;;;;;;;;;9.88;73.81;95803.00;1041022;28;19992;-48
2021/06/02 01:37:42;;;;;;;;;;;;;;;9.85;74.01;95810.47;1041271;28;20301;-49
2021/06/02 01:38:31;;;;;;;;;;;;;;;9.80;73.45;95805.81;1041132;28;20079;-46
2021/06/02 01:39:03;;;;;;;;;;;;;;;9.70;73.95;95798.31;1045539;28;19963;-47
2021/06/02 01:39:49;;;;;;;;;;;;;;;9.67;74.58;95805.78;1045622;28;20403;-47
2021/06/02 01:40:19;;;;;;;;;;;;;;;9.59;74.71;95801.50;1045473;28;19954;-47
2021/06/02 01:41:08;;;;;;;;;;;;;;;9.56;74.49;95800.06;1045306;28;20361;-48
2021/06/02 01:41:38;;;;;;;;;;;;;;;9.50;74.83;95797.41;1045288;28;19909;-47
2021/06/02 01:42:11;;;;;;;;;;;;;;;9.50;75.39;95800.06;1045410;28;20503;-46
2021/06/02 01:43:00;;;;;;;;;;;;;;;9.42;74.78;95801.03;1044259;28;20277;-49
2021/06/02 01:43:37;;;;;;;;;;;;;;;9.34;75.43;95799.38;1045359;28;19912;-47
2021/06/02 01:44:17;;;;;;;;;;;;;;;9.28;75.74;95799.31;1045325;28;19936;-47
2021/06/02 01:45:09;;;;;;;;;;;;;;;9.26;76.17;95802.16;1045681;28;20102;-47
2021/06/02 01:45:57;;;;;;;;;;;;;;;9.25;76.36;95800.56;1045342;28;19963;-47
2021/06/02 01:46:28;;;;;;;;;;;;;;;9.24;76.58;95799.72;1045311;28;20336;-47
2021/06/02 01:46:58;;;;;;;;;;;;;;;9.21;76.38;95804.56;1045410;28;19909;-46
2021/06/02 01:47:28;;;;;;;;;;;;;;;9.21;76.67;95801.94;1045438;28;20380;-48
2021/06/02 01:48:01;;;;;;;;;;;;;;;9.19;76.08;95802.13;1045693;28;19909;-48
2021/06/02 01:48:33;;;;;;;;;;;;;;;9.24;76.19;95799.72;1045698;28;20015;-46
2021/06/02 01:49:22;;;;;;;;;;;;;;;9.18;76.42;95804.94;1045964;28;20415;-49
2021/06/02 01:49:55;;;;;;;;;;;;;;;9.12;76.95;95795.22;1045753;28;19917;-47
2021/06/02 01:50:40;;;;;;;;;;;;;;;9.18;77.24;95803.13;1045749;28;19910;-47
2021/06/02 01:51:16;;;;;;;;;;;;;;;9.15;77.12;95795.63;1045201;28;19900;-48
2021/06/02 01:52:04;;;;;;;;;;;;;;;9.14;77.88;95804.53;1045433;28;20083;-49
2021/06/02 01:52:38;;;;;;;;;;;;;;;9.17;77.72;95792.81;1045377;28;19924;-46
2021/06/02 01:53:22;;;;;;;;;;;;;;;9.14;77.60;95801.91;1045936;28;19901;-47
2021/06/02 01:53:55;;;;;;;;;;;;;;;9.16;77.36;95794.63;1045386;28;20046;-46
2021/06/02 01:54:41;;;;;;;;;;;;;;;9.17;77.90;95790.19;1045098;28;19901;-46
2021/06/02 01:55:20;;;;;;;;;;;;;;;9.19;77.70;95796.88;1045328;28;20003;-48
2021/06/02 01:55:56;;;;;;;;;;;;;;;9.21;77.60;95796.69;1045033;28;20343;-48
2021/06/02 01:56:33;;;;;;;;;;;;;;;9.20;77.93;95795.06;1045171;28;19901;-49
2021/06/02 01:57:08;;;;;;;;;;;;;;;9.21;77.57;95794.84;1045225;28;20007;-47
2021/06/02 01:57:42;;;;;;;;;;;;;;;9.18;77.80;95797.88;1045302;28;19987;-47
2021/06/02 01:58:30;;;;;;;;;;;;;;;9.14;77.45;95799.28;1045289;28;19905;-49
2021/06/02 01:59:19;;;;;;;;;;;;;;;9.20;76.93;95793.25;1045802;28;20238;-51
2021/06/02 01:59:58;;;;;;;;;;;;;;;9.16;76.81;95799.09;1045432;28;19932;-47
2021/06/02 02:00:47;;;;;;;;;;;;;;;9.12;76.79;95801.28;1045553;28;19901;-47
2021/06/02 02:01:36;;;;;;;;;;;;;;;9.11;77.01;95798.84;1045581;28;20000;-48
2021/06/02 02:02:06;;;;;;;;;;;;;;;9.14;76.84;95794.03;1045567;28;19901;-47
2021/06/02 02:02:43;;;;;;;;;;;;;;;9.15;77.24;95800.88;1045606;28;19901;-47
2021/06/02 02:03:13;;;;;;;;;;;;;;;9.16;76.57;95796.47;1045462;28;20326;-48
2021/06/02 02:04:02;;;;;;;;;;;;;;;9.17;76.81;95793.66;1045492;28;19907;-47
2021/06/02 02:04:51;;;;;;;;;;;;;;;9.18;77.08;95797.88;1045247;28;19927;-47
2021/06/02 02:05:40;;;;;;;;;;;;;;;9.16;77.10;95802.53;1045754;28;19904;-47
2021/06/02 02:06:28;;;;;;;;;;;;;;;9.14;77.06;95796.66;1045504;28;19944;-48
2021/06/02 02:07:17;;;;;;;;;;;;;;;9.14;77.72;95796.66;1044937;28;19951;-47
2021/06/02 02:07:47;;;;;;;;;;;;;;;9.12;77.32;95797.84;1045553;28;19949;-48
2021/06/02 02:08:23;;;;;;;;;;;;;;;9.11;77.72;95799.69;1045607;28;19912;-50
2021/06/02 02:08:53;;;;;;;;;;;;;;;9.05;77.84;95792.56;1045266;28;19901;-47
2021/06/02 02:09:23;;;;;;;;;;;;;;;9.04;77.98;95798.81;1045341;28;19900;-47
2021/06/02 02:09:53;;;;;;;;;;;;;;;9.07;78.41;95796.59;1045379;28;19908;-47
2021/06/02 02:10:40;;;;;;;;;;;;;;;9.06;78.88;95792.38;1040912;28;19902;-47
2021/06/02 02:11:42;;;;;;;;;;;;;;;9.00;78.53;95797.56;1041253;28;19960;-47
2021/06/02 02:12:30;;;;;;;;;;;;;;;8.99;78.99;95795.97;1035043;28;19916;-49
2021/06/02 02:13:19;;;;;;;;;;;;;;;8.98;78.64;95796.97;1032725;28;19906;-47
2021/06/02 02:13:52;;;;;;;;;;;;;;;9.01;78.61;95802.63;1033006;28;19949;-47
2021/06/02 02:14:32;;;;;;;;;;;;;;;9.02;78.03;95803.47;1032521;28;19984;-49
2021/06/02 02:15:17;;;;;;;;;;;;;;;9.06;77.95;95802.06;1036781;28;19909;-47
2021/06/02 02:16:06;;;;;;;;;;;;;;;9.05;77.87;95801.25;1036687;28;19959;-48
2021/06/02 02:16:42;;;;;;;;;;;;;;;9.05;77.37;95805.69;1036707;28;19920;-46
2021/06/02 02:17:22;;;;;;;;;;;;;;;9.04;77.63;95804.88;1036906;28;19925;-46
2021/06/02 02:18:10;;;;;;;;;;;;;;;9.06;77.63;95799.44;1036668;28;19905;-50
2021/06/02 02:18:59;;;;;;;;;;;;;;;9.03;77.19;95808.53;1036698;28;20043;-47
2021/06/02 02:19:41;;;;;;;;;;;;;;;9.03;77.40;95803.28;1036660;28;19906;-47
2021/06/02 02:20:18;;;;;;;;;;;;;;;8.92;78.05;95803.00;1036781;28;20282;-47
2021/06/02 02:21:04;;;;;;;;;;;;;;;8.90;78.54;95811.06;1032677;28;19913;-47
2021/06/02 02:21:40;;;;;;;;;;;;;;;8.92;77.76;95806.41;1032752;28;19906;-47
2021/06/02 02:22:29;;;;;;;;;;;;;;;8.88;78.02;95805.16;1032606;28;19906;-47
2021/06/02 02:23:14;;;;;;;;;;;;;;;8.91;77.81;95806.59;1036890;28;19951;-49
2021/06/02 02:23:53;;;;;;;;;;;;;;;8.91;78.13;95802.16;1036843;28;19905;-47
2021/06/02 02:24:29;;;;;;;;;;;;;;;8.88;78.00;95802.53;1032574;28;19956;-50
2021/06/02 02:25:19;;;;;;;;;;;;;;;8.86;78.07;95801.94;1032717;28;20313;-47
2021/06/02 02:25:56;;;;;;;;;;;;;;;8.80;78.70;95803.50;1032094;28;19910;-48
2021/06/02 02:26:27;;;;;;;;;;;;;;;8.77;78.87;95811.75;1036434;28;19968;-47
2021/06/02 02:27:16;;;;;;;;;;;;;;;8.76;78.53;95802.28;1028554;28;19909;-47
2021/06/02 02:28:01;;;;;;;;;;;;;;;8.75;78.70;95810.34;1028653;28;19910;-50
2021/06/02 02:28:51;;;;;;;;;;;;;;;8.78;79.27;95808.16;1029508;28;19910;-51
2021/06/02 02:29:40;;;;;;;;;;;;;;;8.75;78.99;95811.16;1036587;28;20390;-48
2021/06/02 02:30:23;;;;;;;;;;;;;;;8.75;78.97;95808.53;1036573;28;20310;-47
2021/06/02 02:30:59;;;;;;;;;;;;;;;8.66;78.97;95805.22;1032687;28;19914;-47
2021/06/02 02:31:45;;;;;;;;;;;;;;;8.65;79.51;95803.59;1032775;28;19953;-49
2021/06/02 02:32:34;;;;;;;;;;;;;;;8.64;79.71;95812.50;1024473;28;19925;-50
2021/06/02 02:33:10;;;;;;;;;;;;;;;8.56;80.13;95807.38;1028619;28;19925;-46
2021/06/02 02:33:52;;;;;;;;;;;;;;;8.55;80.69;95805.75;1028746;28;19910;-46
2021/06/02 02:34:25;;;;;;;;;;;;;;;8.49;80.72;95807.31;1036422;28;19916;-47
2021/06/02 02:35:15;;;;;;;;;;;;;;;8.47;80.61;95808.50;1036736;28;19909;-48
2021/06/02 02:35:46;;;;;;;;;;;;;;;8.47;80.63;95813.75;1036619;28;19913;-49
2021/06/02 02:36:39;;;;;;;;;;;;;;;8.45;80.96;95807.91;1036667;28;19910;-46
2021/06/02 02:37:28;;;;;;;;;;;;;;;8.51;80.85;95810.56;1036619;28;19913;-47
2021/06/02 02:37:59;;;;;;;;;;;;;;;8.59;79.87;95814.06;1036620;28;19992;-46
2021/06/02 02:38:38;;;;;;;;;;;;;;;8.60;79.75;95816.50;1036680;28;19913;-47
2021/06/02 02:39:17;;;;;;;;;;;;;;;8.54;79.88;95810.19;1036667;28;19915;-46
2021/06/02 02:40:23;;;;;;;;;;;;;;;8.52;80.35;95806.94;1036637;28;19917;-48
2021/06/02 02:41:12;;;;;;;;;;;;;;;8.53;80.64;95808.56;1028489;28;19906;-48
2021/06/02 02:42:01;;;;;;;;;;;;;;;8.51;80.36;95815.00;1028529;28;19913;-48
2021/06/02 02:42:34;;;;;;;;;;;;;;;8.54;80.49;95818.03;1028583;28;20323;-47
2021/06/02 02:43:23;;;;;;;;;;;;;;;8.52;80.09;95816.63;1028526;28;20287;-48
2021/06/02 02:44:01;;;;;;;;;;;;;;;8.43;80.91;95813.28;1028498;28;19981;-47
2021/06/02 02:44:38;;;;;;;;;;;;;;;8.44;81.24;95820.22;1028310;28;20375;-50
2021/06/02 02:45:20;;;;;;;;;;;;;;;8.44;81.22;95817.59;1028594;28;19910;-48
2021/06/02 02:45:56;;;;;;;;;;;;;;;8.44;81.41;95817.59;1028695;28;20009;-47
2021/06/02 02:46:38;;;;;;;;;;;;;;;8.48;81.67;95820.63;1028504;28;19910;-49
2021/06/02 02:47:13;;;;;;;;;;;;;;;8.47;81.63;95817.22;1028447;28;19957;-47
2021/06/02 02:47:44;;;;;;;;;;;;;;;8.49;80.78;95817.81;1028553;28;19910;-48
2021/06/02 02:48:19;;;;;;;;;;;;;;;8.51;80.56;95821.06;1028727;28;19914;-51
2021/06/02 02:48:58;;;;;;;;;;;;;;;8.56;80.34;95814.44;1029032;28;19909;-49
2021/06/02 02:49:52;;;;;;;;;;;;;;;8.54;80.21;95817.25;1026418;28;20055;-47
2021/06/02 02:50:24;;;;;;;;;;;;;;;8.55;80.47;95818.88;1024575;28;19910;-46
2021/06/02 02:50:58;;;;;;;;;;;;;;;8.52;81.14;95819.25;1024898;29;20286;-48
2021/06/02 02:51:35;;;;;;;;;;;;;;;8.56;80.21;95815.22;1028534;28;19917;-46
2021/06/02 02:52:11;;;;;;;;;;;;;;;8.58;79.88;95813.25;1030139;28;19910;-46
2021/06/02 02:52:42;;;;;;;;;;;;;;;8.52;80.54;95816.63;1032522;28;19910;-48
2021/06/02 02:53:14;;;;;;;;;;;;;;;8.51;80.81;95821.06;1032636;28;19910;-47
2021/06/02 02:54:03;;;;;;;;;;;;;;;8.50;81.73;95808.13;1028576;28;19917;-47
2021/06/02 02:55:03;;;;;;;;;;;;;;;8.46;81.91;95817.41;1028243;28;19930;-51
2021/06/02 02:55:34;;;;;;;;;;;;;;;8.40;81.84;95815.50;1026787;28;19917;-46
2021/06/02 02:56:07;;;;;;;;;;;;;;;8.40;82.06;95815.50;1032399;28;19987;-47
2021/06/02 02:56:45;;;;;;;;;;;;;;;8.44;82.21;95825.44;1032575;28;19910;-47
2021/06/02 02:57:34;;;;;;;;;;;;;;;8.37;81.79;95821.91;1028475;28;19909;-46
2021/06/02 02:58:16;;;;;;;;;;;;;;;8.36;81.96;95815.84;1028435;28;20396;-47
2021/06/02 02:58:53;;;;;;;;;;;;;;;8.34;82.26;95814.44;1028499;28;19910;-48
2021/06/02 02:59:25;;;;;;;;;;;;;;;8.31;82.36;95823.47;1028429;28;19916;-49
2021/06/02 02:59:56;;;;;;;;;;;;;;;8.33;82.27;95823.28;1024484;29;19916;-49
2021/06/02 03:00:36;;;;;;;;;;;;;;;8.30;82.17;95818.41;1024540;28;19910;-47
2021/06/02 03:01:21;;;;;;;;;;;;;;;8.30;82.02;95824.47;1022073;29;19911;-47
2021/06/02 03:02:08;;;;;;;;;;;;;;;8.33;82.41;95820.66;1024478;29;19918;-46
2021/06/02 03:02:43;;;;;;;;;;;;;;;8.31;82.75;95826.09;1028481;28;19910;-46
2021/06/02 03:03:28;;;;;;;;;;;;;;;8.32;82.42;95826.91;1028513;28;20313;-46
2021/06/02 03:04:17;;;;;;;;;;;;;;;8.35;82.36;95827.34;1028560;28;19917;-45